sensor_id;sensor_type;location;lat;lon;timestamp;pressure;altitude;pressure_sealevel;temperature;humidity
32251;BME280;41295;48.518;9.206;2023-06-14T00:01:17;96709.97;;;20.01;39.80
32251;BME280;41295;48.518;9.206;2023-06-14T00:03:21;96712.84;;;19.98;40.14
32251;BME280;41295;48.518;9.206;2023-06-14T00:05:26;96710.63;;;19.93;40.40
32251;BME280;41295;48.518;9.206;2023-06-14T00:07:35;96715.91;;;19.93;40.23
32251;BME280;41295;48.518;9.206;2023-06-14T00:09:38;96714.25;;;19.92;40.18
32251;BME280;41295;48.518;9.206;2023-06-14T00:11:41;96717.97;;;19.89;40.32
32251;BME280;41295;48.518;9.206;2023-06-14T00:13:43;96722.94;;;19.82;40.80
32251;BME280;41295;48.518;9.206;2023-06-14T00:15:48;96721.28;;;19.81;40.50
32251;BME280;41295;48.518;9.206;2023-06-14T00:17:51;96715.41;;;19.78;40.44
32251;BME280;41295;48.518;9.206;2023-06-14T00:19:53;96723.59;;;19.75;40.54
32251;BME280;41295;48.518;9.206;2023-06-14T00:21:58;96722.88;;;19.73;40.37
32251;BME280;41295;48.518;9.206;2023-06-14T00:24:01;96716.06;;;19.70;40.25
32251;BME280;41295;48.518;9.206;2023-06-14T00:26:03;96717.13;;;19.67;40.35
32251;BME280;41295;48.518;9.206;2023-06-14T00:28:06;96721.84;;;19.64;40.54
32251;BME280;41295;48.518;9.206;2023-06-14T00:30:10;96718.75;;;19.58;40.39
32251;BME280;41295;48.518;9.206;2023-06-14T00:32:14;96715.66;;;19.53;40.50
32251;BME280;41295;48.518;9.206;2023-06-14T00:34:17;96715.19;;;19.48;40.66
32251;BME280;41295;48.518;9.206;2023-06-14T00:36:19;96711.97;;;19.44;40.49
32251;BME280;41295;48.518;9.206;2023-06-14T00:38:22;96714.75;;;19.43;40.42
32251;BME280;41295;48.518;9.206;2023-06-14T00:40:25;96713.91;;;19.42;40.40
32251;BME280;41295;48.518;9.206;2023-06-14T00:42:28;96711.38;;;19.41;40.52
32251;BME280;41295;48.518;9.206;2023-06-14T00:44:31;96716.94;;;19.38;41.03
32251;BME280;41295;48.518;9.206;2023-06-14T00:46:33;96711.91;;;19.34;41.19
32251;BME280;41295;48.518;9.206;2023-06-14T00:48:39;96707.97;;;19.29;41.40
32251;BME280;41295;48.518;9.206;2023-06-14T00:50:42;96705.94;;;19.21;41.75
32251;BME280;41295;48.518;9.206;2023-06-14T00:52:47;96707.31;;;19.15;41.64
32251;BME280;41295;48.518;9.206;2023-06-14T00:54:50;96712.81;;;19.12;41.44
32251;BME280;41295;48.518;9.206;2023-06-14T00:56:53;96703.34;;;19.09;41.48
32251;BME280;41295;48.518;9.206;2023-06-14T00:58:57;96712.34;;;19.07;41.42
32251;BME280;41295;48.518;9.206;2023-06-14T01:01:00;96708.16;;;19.04;41.54
32251;BME280;41295;48.518;9.206;2023-06-14T01:03:03;96710.22;;;19.01;42.04
32251;BME280;41295;48.518;9.206;2023-06-14T01:05:08;96710.47;;;18.97;41.81
32251;BME280;41295;48.518;9.206;2023-06-14T01:07:18;96707.22;;;18.94;41.72
32251;BME280;41295;48.518;9.206;2023-06-14T01:09:30;96708.19;;;18.93;41.79
32251;BME280;41295;48.518;9.206;2023-06-14T01:11:38;96706.38;;;18.93;41.44
32251;BME280;41295;48.518;9.206;2023-06-14T01:13:45;96709.28;;;18.90;41.20
32251;BME280;41295;48.518;9.206;2023-06-14T01:15:50;96708.44;;;18.90;41.54
32251;BME280;41295;48.518;9.206;2023-06-14T01:17:53;96712.88;;;18.89;41.86
32251;BME280;41295;48.518;9.206;2023-06-14T01:20:05;96716.50;;;18.88;42.21
32251;BME280;41295;48.518;9.206;2023-06-14T01:22:13;96716.50;;;18.88;42.21
32251;BME280;41295;48.518;9.206;2023-06-14T01:24:17;96719.25;;;18.86;42.40
32251;BME280;41295;48.518;9.206;2023-06-14T01:26:24;96712.28;;;18.85;42.58
32251;BME280;41295;48.518;9.206;2023-06-14T01:28:31;96712.41;;;18.84;42.56
32251;BME280;41295;48.518;9.206;2023-06-14T01:30:35;96716.84;;;18.83;42.77
32251;BME280;41295;48.518;9.206;2023-06-14T01:32:39;96712.78;;;18.79;42.86
32251;BME280;41295;48.518;9.206;2023-06-14T01:34:41;96716.50;;;18.77;42.65
32251;BME280;41295;48.518;9.206;2023-06-14T01:36:45;96712.44;;;18.72;42.67
32251;BME280;41295;48.518;9.206;2023-06-14T01:38:50;96714.38;;;18.70;42.73
32251;BME280;41295;48.518;9.206;2023-06-14T01:40:56;96712.53;;;18.71;42.76
32251;BME280;41295;48.518;9.206;2023-06-14T01:43:02;96711.84;;;18.69;42.96
32251;BME280;41295;48.518;9.206;2023-06-14T01:45:07;96719.19;;;18.65;43.00
32251;BME280;41295;48.518;9.206;2023-06-14T01:47:11;96712.44;;;18.61;43.11
32251;BME280;41295;48.518;9.206;2023-06-14T01:49:14;96711.25;;;18.54;43.11
32251;BME280;41295;48.518;9.206;2023-06-14T01:51:17;96703.84;;;18.47;43.18
32251;BME280;41295;48.518;9.206;2023-06-14T01:53:19;96711.25;;;18.42;43.34
32251;BME280;41295;48.518;9.206;2023-06-14T01:55:23;96708.06;;;18.38;43.08
32251;BME280;41295;48.518;9.206;2023-06-14T01:57:27;96716.06;;;18.37;43.16
32251;BME280;41295;48.518;9.206;2023-06-14T01:59:30;96715.38;;;18.35;43.49
32251;BME280;41295;48.518;9.206;2023-06-14T02:01:36;96709.38;;;18.33;43.49
32251;BME280;41295;48.518;9.206;2023-06-14T02:03:39;96715.84;;;18.29;43.50
32251;BME280;41295;48.518;9.206;2023-06-14T02:05:42;96711.66;;;18.26;43.91
32251;BME280;41295;48.518;9.206;2023-06-14T02:07:44;96708.16;;;18.25;44.04
32251;BME280;41295;48.518;9.206;2023-06-14T02:09:48;96717.16;;;18.23;44.05
32251;BME280;41295;48.518;9.206;2023-06-14T02:11:51;96717.16;;;18.23;44.03
32251;BME280;41295;48.518;9.206;2023-06-14T02:13:55;96719.91;;;18.21;44.05
32251;BME280;41295;48.518;9.206;2023-06-14T02:15:57;96726.28;;;18.19;44.11
32251;BME280;41295;48.518;9.206;2023-06-14T02:18:01;96717.84;;;18.13;44.38
32251;BME280;41295;48.518;9.206;2023-06-14T02:20:06;96723.13;;;18.13;44.29
32251;BME280;41295;48.518;9.206;2023-06-14T02:22:09;96725.78;;;18.13;44.18
32251;BME280;41295;48.518;9.206;2023-06-14T02:24:12;96715.44;;;18.10;44.24
32251;BME280;41295;48.518;9.206;2023-06-14T02:26:15;96720.84;;;18.09;44.50
32251;BME280;41295;48.518;9.206;2023-06-14T02:28:18;96721.94;;;18.06;44.44
32251;BME280;41295;48.518;9.206;2023-06-14T02:30:23;96723.84;;;18.04;44.28
32251;BME280;41295;48.518;9.206;2023-06-14T02:32:26;96718.69;;;18.02;44.30
32251;BME280;41295;48.518;9.206;2023-06-14T02:34:29;96717.22;;;17.98;44.47
32251;BME280;41295;48.518;9.206;2023-06-14T02:36:32;96718.41;;;17.94;44.44
32251;BME280;41295;48.518;9.206;2023-06-14T02:38:34;96717.81;;;17.90;44.33
32251;BME280;41295;48.518;9.206;2023-06-14T02:40:37;96713.75;;;17.86;44.59
32251;BME280;41295;48.518;9.206;2023-06-14T02:42:39;96720.06;;;17.84;44.62
32251;BME280;41295;48.518;9.206;2023-06-14T02:44:42;96710.63;;;17.81;44.46
32251;BME280;41295;48.518;9.206;2023-06-14T02:46:47;96718.75;;;17.78;44.68
32251;BME280;41295;48.518;9.206;2023-06-14T02:48:50;96716.22;;;17.76;44.76
32251;BME280;41295;48.518;9.206;2023-06-14T02:50:53;96721.75;;;17.73;44.93
32251;BME280;41295;48.518;9.206;2023-06-14T02:52:55;96723.53;;;17.73;44.74
32251;BME280;41295;48.518;9.206;2023-06-14T02:54:58;96720.06;;;17.72;44.72
32251;BME280;41295;48.518;9.206;2023-06-14T02:57:01;96725.44;;;17.71;44.55
32251;BME280;41295;48.518;9.206;2023-06-14T02:59:04;96722.31;;;17.65;44.72
32251;BME280;41295;48.518;9.206;2023-06-14T03:01:07;96720.75;;;17.63;44.97
32251;BME280;41295;48.518;9.206;2023-06-14T03:03:15;96721.09;;;17.58;45.01
32251;BME280;41295;48.518;9.206;2023-06-14T03:05:19;96717.75;;;17.56;45.21
32251;BME280;41295;48.518;9.206;2023-06-14T03:07:23;96729.25;;;17.55;45.24
32251;BME280;41295;48.518;9.206;2023-06-14T03:09:26;96725.78;;;17.54;45.13
32251;BME280;41295;48.518;9.206;2023-06-14T03:11:30;96726.59;;;17.55;45.11
32251;BME280;41295;48.518;9.206;2023-06-14T03:13:34;96726.97;;;17.50;45.17
32251;BME280;41295;48.518;9.206;2023-06-14T03:15:36;96729.84;;;17.47;45.23
32251;BME280;41295;48.518;9.206;2023-06-14T03:17:39;96737.00;;;17.45;45.13
32251;BME280;41295;48.518;9.206;2023-06-14T03:19:48;96737.34;;;17.40;45.26
32251;BME280;41295;48.518;9.206;2023-06-14T03:21:51;96735.16;;;17.34;45.23
32251;BME280;41295;48.518;9.206;2023-06-14T03:23:55;96734.56;;;17.30;45.45
32251;BME280;41295;48.518;9.206;2023-06-14T03:25:57;96736.69;;;17.25;45.06
32251;BME280;41295;48.518;9.206;2023-06-14T03:28:00;96732.59;;;17.21;45.43
32251;BME280;41295;48.518;9.206;2023-06-14T03:30:03;96744.22;;;17.18;45.75
32251;BME280;41295;48.518;9.206;2023-06-14T03:32:07;96746.97;;;17.17;45.67
32251;BME280;41295;48.518;9.206;2023-06-14T03:34:10;96746.09;;;17.16;45.77
32251;BME280;41295;48.518;9.206;2023-06-14T03:36:14;96739.88;;;17.17;45.80
32251;BME280;41295;48.518;9.206;2023-06-14T03:38:17;96740.00;;;17.16;45.87
32251;BME280;41295;48.518;9.206;2023-06-14T03:40:20;96748.75;;;17.16;46.09
32251;BME280;41295;48.518;9.206;2023-06-14T03:42:23;96746.97;;;17.17;45.91
32251;BME280;41295;48.518;9.206;2023-06-14T03:44:26;96746.00;;;17.18;45.91
32251;BME280;41295;48.518;9.206;2023-06-14T03:46:29;96750.28;;;17.19;46.23
32251;BME280;41295;48.518;9.206;2023-06-14T03:48:32;96747.66;;;17.19;46.32
32251;BME280;41295;48.518;9.206;2023-06-14T03:50:35;96745.25;;;17.16;46.04
32251;BME280;41295;48.518;9.206;2023-06-14T03:52:40;96750.66;;;17.14;46.03
32251;BME280;41295;48.518;9.206;2023-06-14T03:54:45;96752.66;;;17.11;46.13
32251;BME280;41295;48.518;9.206;2023-06-14T03:56:50;96753.72;;;17.08;46.26
32251;BME280;41295;48.518;9.206;2023-06-14T03:58:53;96752.75;;;17.09;46.33
32251;BME280;41295;48.518;9.206;2023-06-14T04:00:56;96765.28;;;17.05;46.47
32251;BME280;41295;48.518;9.206;2023-06-14T04:02:59;96759.19;;;17.05;46.60
32251;BME280;41295;48.518;9.206;2023-06-14T04:05:02;96764.31;;;17.06;46.47
32251;BME280;41295;48.518;9.206;2023-06-14T04:07:05;96770.56;;;17.05;46.72
32251;BME280;41295;48.518;9.206;2023-06-14T04:09:11;96772.16;;;17.08;46.67
32251;BME280;41295;48.518;9.206;2023-06-14T04:11:14;96776.25;;;17.12;46.40
32251;BME280;41295;48.518;9.206;2023-06-14T04:13:16;96781.41;;;17.14;46.28
32251;BME280;41295;48.518;9.206;2023-06-14T04:15:19;96782.75;;;17.19;45.97
32251;BME280;41295;48.518;9.206;2023-06-14T04:17:23;96785.28;;;17.21;46.39
32251;BME280;41295;48.518;9.206;2023-06-14T04:19:25;96787.69;;;17.24;46.33
32251;BME280;41295;48.518;9.206;2023-06-14T04:21:28;96792.94;;;17.24;46.41
32251;BME280;41295;48.518;9.206;2023-06-14T04:23:31;96782.41;;;17.24;46.33
32251;BME280;41295;48.518;9.206;2023-06-14T04:25:35;96790.31;;;17.24;46.56
32251;BME280;41295;48.518;9.206;2023-06-14T04:27:38;96793.91;;;17.23;46.51
32251;BME280;41295;48.518;9.206;2023-06-14T04:29:41;96791.41;;;17.22;46.38
32251;BME280;41295;48.518;9.206;2023-06-14T04:31:45;96801.81;;;17.23;46.22
32251;BME280;41295;48.518;9.206;2023-06-14T04:33:48;96792.25;;;17.22;45.98
32251;BME280;41295;48.518;9.206;2023-06-14T04:35:52;96796.44;;;17.25;45.88
32251;BME280;41295;48.518;9.206;2023-06-14T04:37:57;96797.16;;;17.27;45.38
32251;BME280;41295;48.518;9.206;2023-06-14T04:40:00;96797.78;;;17.30;45.34
32251;BME280;41295;48.518;9.206;2023-06-14T04:42:07;96801.28;;;17.31;45.38
32251;BME280;41295;48.518;9.206;2023-06-14T04:44:13;96802.09;;;17.31;45.67
32251;BME280;41295;48.518;9.206;2023-06-14T04:46:18;96810.97;;;17.30;45.78
32251;BME280;41295;48.518;9.206;2023-06-14T04:48:21;96805.91;;;17.27;45.63
32251;BME280;41295;48.518;9.206;2023-06-14T04:50:24;96808.44;;;17.29;45.31
32251;BME280;41295;48.518;9.206;2023-06-14T04:52:27;96812.63;;;17.31;45.37
32251;BME280;41295;48.518;9.206;2023-06-14T04:54:33;96810.00;;;17.31;45.47
32251;BME280;41295;48.518;9.206;2023-06-14T04:56:41;96810.84;;;17.32;44.78
32251;BME280;41295;48.518;9.206;2023-06-14T04:58:46;96815.88;;;17.35;44.41
32251;BME280;41295;48.518;9.206;2023-06-14T05:00:49;96819.97;;;17.39;44.43
32251;BME280;41295;48.518;9.206;2023-06-14T05:02:51;96816.38;;;17.40;44.23
32251;BME280;41295;48.518;9.206;2023-06-14T05:04:54;96817.00;;;17.44;44.10
32251;BME280;41295;48.518;9.206;2023-06-14T05:06:58;96820.38;;;17.46;44.34
32251;BME280;41295;48.518;9.206;2023-06-14T05:09:02;96817.84;;;17.45;43.79
32251;BME280;41295;48.518;9.206;2023-06-14T05:11:05;96820.38;;;17.46;43.71
32251;BME280;41295;48.518;9.206;2023-06-14T05:13:08;96818.69;;;17.45;44.48
32251;BME280;41295;48.518;9.206;2023-06-14T05:15:13;96817.84;;;17.45;44.76
32251;BME280;41295;48.518;9.206;2023-06-14T05:17:16;96822.16;;;17.46;44.37
32251;BME280;41295;48.518;9.206;2023-06-14T05:19:19;96821.44;;;17.43;44.45
32251;BME280;41295;48.518;9.206;2023-06-14T05:21:23;96814.38;;;17.44;44.51
32251;BME280;41295;48.518;9.206;2023-06-14T05:23:25;96821.34;;;17.45;44.68
32251;BME280;41295;48.518;9.206;2023-06-14T05:25:28;96818.94;;;17.42;45.28
32251;BME280;41295;48.518;9.206;2023-06-14T05:27:31;96823.00;;;17.46;45.32
32251;BME280;41295;48.518;9.206;2023-06-14T05:29:36;96819.44;;;17.47;44.80
32251;BME280;41295;48.518;9.206;2023-06-14T05:31:40;96821.84;;;17.50;44.79
32251;BME280;41295;48.518;9.206;2023-06-14T05:33:42;96826.25;;;17.50;44.78
32251;BME280;41295;48.518;9.206;2023-06-14T05:35:45;96822.69;;;17.51;44.98
32251;BME280;41295;48.518;9.206;2023-06-14T05:37:48;96833.22;;;17.51;44.37
32251;BME280;41295;48.518;9.206;2023-06-14T05:39:50;96836.91;;;17.48;43.71
32251;BME280;41295;48.518;9.206;2023-06-14T05:41:53;96831.41;;;17.51;43.85
32251;BME280;41295;48.518;9.206;2023-06-14T05:43:56;96830.47;;;17.52;43.55
32251;BME280;41295;48.518;9.206;2023-06-14T05:45:59;96836.25;;;17.58;43.27
32251;BME280;41295;48.518;9.206;2023-06-14T05:48:04;96831.91;;;17.57;43.18
32251;BME280;41295;48.518;9.206;2023-06-14T05:50:07;96833.72;;;17.56;43.69
32251;BME280;41295;48.518;9.206;2023-06-14T05:52:10;96833.63;;;17.58;43.89
32251;BME280;41295;48.518;9.206;2023-06-14T05:54:14;96836.97;;;17.60;43.94
32251;BME280;41295;48.518;9.206;2023-06-14T05:56:17;96832.53;;;17.60;44.07
32251;BME280;41295;48.518;9.206;2023-06-14T05:58:20;96839.16;;;17.66;43.93
32251;BME280;41295;48.518;9.206;2023-06-14T06:00:23;96834.00;;;17.64;43.86
32251;BME280;41295;48.518;9.206;2023-06-14T06:02:26;96842.53;;;17.68;43.79
32251;BME280;41295;48.518;9.206;2023-06-14T06:04:30;96837.75;;;17.73;43.55
32251;BME280;41295;48.518;9.206;2023-06-14T06:06:33;96842.78;;;17.76;43.47
32251;BME280;41295;48.518;9.206;2023-06-14T06:08:37;96837.31;;;17.79;43.37
32251;BME280;41295;48.518;9.206;2023-06-14T06:10:39;96838.84;;;17.82;43.56
32251;BME280;41295;48.518;9.206;2023-06-14T06:12:42;96845.81;;;17.83;43.42
32251;BME280;41295;48.518;9.206;2023-06-14T06:14:45;96850.75;;;17.88;43.36
32251;BME280;41295;48.518;9.206;2023-06-14T06:16:48;96840.81;;;17.91;42.89
32251;BME280;41295;48.518;9.206;2023-06-14T06:18:51;96850.91;;;17.98;42.16
32251;BME280;41295;48.518;9.206;2023-06-14T06:20:55;96851.75;;;17.98;41.68
32251;BME280;41295;48.518;9.206;2023-06-14T06:22:58;96850.91;;;17.98;41.63
32251;BME280;41295;48.518;9.206;2023-06-14T06:25:01;96848.25;;;17.98;42.02
32251;BME280;41295;48.518;9.206;2023-06-14T06:27:04;96851.50;;;18.01;41.66
32251;BME280;41295;48.518;9.206;2023-06-14T06:29:09;96848.53;;;18.06;42.04
32251;BME280;41295;48.518;9.206;2023-06-14T06:31:12;96849.03;;;18.11;41.85
32251;BME280;41295;48.518;9.206;2023-06-14T06:33:15;96846.28;;;18.13;41.78
32251;BME280;41295;48.518;9.206;2023-06-14T06:35:18;96853.00;;;18.17;41.15
32251;BME280;41295;48.518;9.206;2023-06-14T06:37:22;96854.47;;;18.21;41.15
32251;BME280;41295;48.518;9.206;2023-06-14T06:39:25;96848.13;;;18.24;41.15
32251;BME280;41295;48.518;9.206;2023-06-14T06:41:28;96858.22;;;18.30;41.23
32251;BME280;41295;48.518;9.206;2023-06-14T06:43:30;96858.81;;;18.34;41.15
32251;BME280;41295;48.518;9.206;2023-06-14T06:45:33;96857.88;;;18.35;40.87
32251;BME280;41295;48.518;9.206;2023-06-14T06:47:36;96862.06;;;18.37;40.94
32251;BME280;41295;48.518;9.206;2023-06-14T06:49:39;96865.44;;;18.39;40.84
32251;BME280;41295;48.518;9.206;2023-06-14T06:51:42;96866.88;;;18.44;41.06
32251;BME280;41295;48.518;9.206;2023-06-14T06:53:52;96863.03;;;18.48;41.77
32251;BME280;41295;48.518;9.206;2023-06-14T06:55:54;96865.47;;;18.51;42.63
32251;BME280;41295;48.518;9.206;2023-06-14T06:57:57;96863.63;;;18.51;42.34
32251;BME280;41295;48.518;9.206;2023-06-14T07:00:01;96869.88;;;18.50;42.39
32251;BME280;41295;48.518;9.206;2023-06-14T07:02:06;96867.13;;;18.52;42.13
32251;BME280;41295;48.518;9.206;2023-06-14T07:04:08;96868.69;;;18.55;42.35
32251;BME280;41295;48.518;9.206;2023-06-14T07:06:11;96873.75;;;18.58;42.29
32251;BME280;41295;48.518;9.206;2023-06-14T07:08:14;96870.00;;;18.60;42.44
32251;BME280;41295;48.518;9.206;2023-06-14T07:10:18;96874.09;;;18.65;42.64
32251;BME280;41295;48.518;9.206;2023-06-14T07:12:21;96876.50;;;18.68;42.26
32251;BME280;41295;48.518;9.206;2023-06-14T07:14:24;96870.97;;;18.71;42.00
32251;BME280;41295;48.518;9.206;2023-06-14T07:16:26;96882.38;;;18.71;42.19
32251;BME280;41295;48.518;9.206;2023-06-14T07:18:29;96876.84;;;18.74;42.37
32251;BME280;41295;48.518;9.206;2023-06-14T07:20:32;96880.22;;;18.77;42.46
32251;BME280;41295;48.518;9.206;2023-06-14T07:22:35;96887.31;;;18.76;42.54
32251;BME280;41295;48.518;9.206;2023-06-14T07:24:37;96882.63;;;18.80;42.36
32251;BME280;41295;48.518;9.206;2023-06-14T07:26:43;96881.44;;;18.84;42.41
32251;BME280;41295;48.518;9.206;2023-06-14T07:28:46;96889.22;;;18.85;42.24
32251;BME280;41295;48.518;9.206;2023-06-14T07:30:50;96878.53;;;18.87;43.01
32251;BME280;41295;48.518;9.206;2023-06-14T07:32:53;96891.53;;;18.90;43.49
32251;BME280;41295;48.518;9.206;2023-06-14T07:34:56;96884.22;;;18.94;43.47
32251;BME280;41295;48.518;9.206;2023-06-14T07:36:58;96900.66;;;18.97;43.53
32251;BME280;41295;48.518;9.206;2023-06-14T07:39:01;96897.78;;;19.01;42.57
32251;BME280;41295;48.518;9.206;2023-06-14T07:41:05;96899.44;;;19.02;42.88
32251;BME280;41295;48.518;9.206;2023-06-14T07:43:09;96897.53;;;19.04;42.81
32251;BME280;41295;48.518;9.206;2023-06-14T07:45:13;96898.59;;;19.01;43.03
32251;BME280;41295;48.518;9.206;2023-06-14T07:47:17;96902.09;;;19.02;42.53
32251;BME280;41295;48.518;9.206;2023-06-14T07:49:19;96896.66;;;19.03;41.76
32251;BME280;41295;48.518;9.206;2023-06-14T07:51:22;96900.88;;;19.06;41.91
32251;BME280;41295;48.518;9.206;2023-06-14T07:53:25;96897.06;;;19.10;42.22
32251;BME280;41295;48.518;9.206;2023-06-14T07:55:27;96905.25;;;19.18;42.56
32251;BME280;41295;48.518;9.206;2023-06-14T07:57:39;96901.41;;;19.22;42.78
32251;BME280;41295;48.518;9.206;2023-06-14T07:59:43;96901.88;;;19.28;42.84
32251;BME280;41295;48.518;9.206;2023-06-14T08:01:46;96902.47;;;19.31;43.17
32251;BME280;41295;48.518;9.206;2023-06-14T08:03:49;96898.59;;;19.35;42.94
32251;BME280;41295;48.518;9.206;2023-06-14T08:05:52;96896.81;;;19.36;42.63
32251;BME280;41295;48.518;9.206;2023-06-14T08:07:55;96897.53;;;19.38;42.76
32251;BME280;41295;48.518;9.206;2023-06-14T08:09:58;96898.13;;;19.42;42.86
32251;BME280;41295;48.518;9.206;2023-06-14T08:12:00;96899.53;;;19.46;42.74
32251;BME280;41295;48.518;9.206;2023-06-14T08:14:03;96904.59;;;19.49;42.38
32251;BME280;41295;48.518;9.206;2023-06-14T08:16:07;96900.00;;;19.51;42.27
32251;BME280;41295;48.518;9.206;2023-06-14T08:18:10;96899.66;;;19.56;42.54
32251;BME280;41295;48.518;9.206;2023-06-14T08:20:13;96900.13;;;19.61;42.77
32251;BME280;41295;48.518;9.206;2023-06-14T08:22:18;96897.94;;;19.66;42.69
32251;BME280;41295;48.518;9.206;2023-06-14T08:24:21;96891.44;;;19.70;42.77
32251;BME280;41295;48.518;9.206;2023-06-14T08:26:26;96899.13;;;19.74;41.90
32251;BME280;41295;48.518;9.206;2023-06-14T08:28:30;96897.06;;;19.77;41.78
32251;BME280;41295;48.518;9.206;2023-06-14T08:30:33;96897.78;;;19.79;41.53
32251;BME280;41295;48.518;9.206;2023-06-14T08:32:37;96901.84;;;19.83;41.69
32251;BME280;41295;48.518;9.206;2023-06-14T08:34:39;96899.91;;;19.86;41.39
32251;BME280;41295;48.518;9.206;2023-06-14T08:36:48;96899.66;;;19.89;41.53
32251;BME280;41295;48.518;9.206;2023-06-14T08:38:50;96897.88;;;19.89;40.44
32251;BME280;41295;48.518;9.206;2023-06-14T08:40:57;96904.47;;;19.95;40.66
32251;BME280;41295;48.518;9.206;2023-06-14T08:42:59;96906.00;;;19.98;40.47
32251;BME280;41295;48.518;9.206;2023-06-14T08:45:03;96909.22;;;20.01;40.83
32251;BME280;41295;48.518;9.206;2023-06-14T08:47:06;96903.72;;;20.04;40.56
32251;BME280;41295;48.518;9.206;2023-06-14T08:49:11;96906.13;;;20.07;40.15
32251;BME280;41295;48.518;9.206;2023-06-14T08:51:18;96912.97;;;20.10;40.17
32251;BME280;41295;48.518;9.206;2023-06-14T08:53:23;96906.44;;;20.14;39.68
32251;BME280;41295;48.518;9.206;2023-06-14T08:55:27;96909.81;;;20.16;39.69
32251;BME280;41295;48.518;9.206;2023-06-14T08:57:32;96913.91;;;20.21;39.99
32251;BME280;41295;48.518;9.206;2023-06-14T08:59:46;96910.00;;;20.25;40.04
32251;BME280;41295;48.518;9.206;2023-06-14T09:01:50;96910.59;;;20.28;40.13
32251;BME280;41295;48.518;9.206;2023-06-14T09:04:14;96907.59;;;20.33;40.17
32251;BME280;41295;48.518;9.206;2023-06-14T09:06:21;96915.97;;;20.38;40.02
32251;BME280;41295;48.518;9.206;2023-06-14T09:08:25;96912.09;;;20.42;40.02
32251;BME280;41295;48.518;9.206;2023-06-14T09:10:28;96911.84;;;20.46;39.95
32251;BME280;41295;48.518;9.206;2023-06-14T09:12:32;96904.47;;;20.49;40.19
32251;BME280;41295;48.518;9.206;2023-06-14T09:14:34;96904.22;;;20.52;39.63
32251;BME280;41295;48.518;9.206;2023-06-14T09:16:39;96908.41;;;20.55;39.74
32251;BME280;41295;48.518;9.206;2023-06-14T09:18:44;96902.72;;;20.60;39.62
32251;BME280;41295;48.518;9.206;2023-06-14T09:20:50;96903.44;;;20.62;40.03
32251;BME280;41295;48.518;9.206;2023-06-14T09:22:53;96908.34;;;20.66;40.15
32251;BME280;41295;48.518;9.206;2023-06-14T09:24:56;96901.91;;;20.69;40.31
32251;BME280;41295;48.518;9.206;2023-06-14T09:26:58;96906.84;;;20.74;40.55
32251;BME280;41295;48.518;9.206;2023-06-14T09:29:01;96906.31;;;20.80;40.90
32251;BME280;41295;48.518;9.206;2023-06-14T09:31:04;96906.16;;;20.82;39.76
32251;BME280;41295;48.518;9.206;2023-06-14T09:33:07;96909.53;;;20.84;39.63
32251;BME280;41295;48.518;9.206;2023-06-14T09:35:10;96908.44;;;20.86;39.02
32251;BME280;41295;48.518;9.206;2023-06-14T09:37:26;96907.47;;;20.87;38.82
32251;BME280;41295;48.518;9.206;2023-06-14T09:39:29;96906.38;;;20.90;38.89
32251;BME280;41295;48.518;9.206;2023-06-14T09:41:32;96913.19;;;20.92;39.65
32251;BME280;41295;48.518;9.206;2023-06-14T09:43:36;96908.38;;;20.98;39.16
32251;BME280;41295;48.518;9.206;2023-06-14T09:45:39;96913.44;;;21.01;38.95
32251;BME280;41295;48.518;9.206;2023-06-14T09:47:43;96921.25;;;21.02;38.29
32251;BME280;41295;48.518;9.206;2023-06-14T09:50:07;96910.09;;;21.09;37.41
32251;BME280;41295;48.518;9.206;2023-06-14T09:52:10;96914.44;;;21.10;37.59
32251;BME280;41295;48.518;9.206;2023-06-14T09:54:16;96905.22;;;21.14;37.67
32251;BME280;41295;48.518;9.206;2023-06-14T09:56:27;96908.59;;;21.16;37.42
32251;BME280;41295;48.518;9.206;2023-06-14T09:58:34;96911.09;;;21.18;37.19
32251;BME280;41295;48.518;9.206;2023-06-14T10:00:39;96908.06;;;21.22;37.74
32251;BME280;41295;48.518;9.206;2023-06-14T10:02:45;96905.13;;;21.25;37.73
32251;BME280;41295;48.518;9.206;2023-06-14T10:04:57;96907.25;;;21.32;35.98
32251;BME280;41295;48.518;9.206;2023-06-14T10:07:03;96905.28;;;21.34;35.62
32251;BME280;41295;48.518;9.206;2023-06-14T10:09:08;96905.88;;;21.37;35.32
32251;BME280;41295;48.518;9.206;2023-06-14T10:11:12;96894.72;;;21.44;35.63
32251;BME280;41295;48.518;9.206;2023-06-14T10:13:16;96896.41;;;21.45;35.92
32251;BME280;41295;48.518;9.206;2023-06-14T10:15:22;96898.91;;;21.46;35.64
32251;BME280;41295;48.518;9.206;2023-06-14T10:17:33;96900.47;;;21.49;35.25
32251;BME280;41295;48.518;9.206;2023-06-14T10:19:40;96903.69;;;21.53;35.40
32251;BME280;41295;48.518;9.206;2023-06-14T10:21:53;96905.19;;;21.55;35.67
32251;BME280;41295;48.518;9.206;2023-06-14T10:24:01;96900.59;;;21.57;35.85
32251;BME280;41295;48.518;9.206;2023-06-14T10:26:06;96900.31;;;21.60;35.50
32251;BME280;41295;48.518;9.206;2023-06-14T10:28:17;96895.72;;;21.62;35.35
32251;BME280;41295;48.518;9.206;2023-06-14T10:30:25;96898.09;;;21.66;35.32
32251;BME280;41295;48.518;9.206;2023-06-14T10:32:28;96898.66;;;21.69;35.44
32251;BME280;41295;48.518;9.206;2023-06-14T10:34:32;96897.56;;;21.72;35.71
32251;BME280;41295;48.518;9.206;2023-06-14T10:36:34;96901.63;;;21.76;36.08
32251;BME280;41295;48.518;9.206;2023-06-14T10:38:37;96898.59;;;21.81;36.27
32251;BME280;41295;48.518;9.206;2023-06-14T10:40:40;96891.19;;;21.84;35.92
32251;BME280;41295;48.518;9.206;2023-06-14T10:42:51;96896.22;;;21.87;35.77
32251;BME280;41295;48.518;9.206;2023-06-14T10:44:57;96894.13;;;21.91;35.46
32251;BME280;41295;48.518;9.206;2023-06-14T10:47:00;96888.66;;;21.93;35.03
32251;BME280;41295;48.518;9.206;2023-06-14T10:49:03;96891.06;;;21.96;34.83
32251;BME280;41295;48.518;9.206;2023-06-14T10:51:15;96896.09;;;21.99;35.23
32251;BME280;41295;48.518;9.206;2023-06-14T10:53:22;96886.44;;;21.98;34.84
32251;BME280;41295;48.518;9.206;2023-06-14T10:55:24;96889.38;;;21.95;35.13
32251;BME280;41295;48.518;9.206;2023-06-14T10:57:27;96889.94;;;21.98;35.21